This is the latest recevied weather packets stored in our database for station/object KD5HIA. If no packets are shown the sender has not sent any weather packets the latest 10 day(s).
| Time | Temp. | Humidity | Pressure | Rain* | Wind** | Luminosity | Snow |
|---|---|---|---|---|---|---|---|
| 1777660518 | 11.67° C | 93% | 1017.1 hPa | 2.54 mm | - | 128 W/m² | - |
| 1777659918 | 12.22° C | 93% | 1017.3 hPa | 2.29 mm | - | 97 W/m² | - |
| 1777659318 | 12.22° C | 92% | 1017.2 hPa | 1.78 mm | - | 77 W/m² | - |
| 1777658718 | 12.22° C | 91% | 1017 hPa | 1.27 mm | - | 64 W/m² | - |
| 1777658118 | 12.22° C | 91% | 1016.9 hPa | 0.51 mm | - | 44 W/m² | - |
| 1777657518 | 12.22° C | 91% | 1016.7 hPa | 0 mm | - | 25 W/m² | - |
| 1777656918 | 12.78° C | 92% | 1016.5 hPa | 0.25 mm | - | 28 W/m² | - |
| 1777656318 | 12.78° C | 92% | 1016.1 hPa | 0.51 mm | - | 58 W/m² | - |
| 1777655718 | 13.33° C | 93% | 1015.8 hPa | 0.76 mm | - | 141 W/m² | - |
| 1777655117 | 12.78° C | 93% | 1015.3 hPa | 0.76 mm | - | 112 W/m² | - |
| 1777654518 | 12.78° C | 93% | 1015.9 hPa | 1.02 mm | - | 76 W/m² | - |
| 1777653918 | 13.33° C | 93% | 1015.7 hPa | 1.27 mm | - | 218 W/m² | - |
| 1777653318 | 12.78° C | 93% | 1015.8 hPa | 1.02 mm | - | 175 W/m² | - |
| 1777652718 | 12.78° C | 94% | 1015.9 hPa | 0.51 mm | - | 49 W/m² | - |
| 1777652118 | 12.78° C | 93% | 1016.1 hPa | 0.51 mm | - | 42 W/m² | - |
| 1777651518 | 12.78° C | 94% | 1015.6 hPa | 1.27 mm | - | 161 W/m² | - |
| 1777650918 | 12.78° C | 94% | 1015.9 hPa | 2.03 mm | - | 47 W/m² | - |
| 1777650318 | 12.78° C | 94% | 1016 hPa | 2.03 mm | - | 21 W/m² | - |
| 1777649718 | 12.78° C | 94% | 1015.3 hPa | 2.03 mm | - | 57 W/m² | - |
| 1777649118 | 12.78° C | 94% | 1015.5 hPa | 2.03 mm | - | 33 W/m² | - |
| 1777648518 | 12.78° C | 94% | 1014.8 hPa | 2.03 mm | - | 144 W/m² | - |
| 1777647918 | 12.78° C | 94% | 1015.7 hPa | 1.52 mm | - | 23 W/m² | - |
| 1777647318 | 12.78° C | 94% | 1014.6 hPa | 0.51 mm | - | 24 W/m² | - |
| 1777646718 | 12.78° C | 94% | 1015 hPa | 0.51 mm | - | 18 W/m² | - |
| 1777646118 | 12.78° C | 94% | 1014.5 hPa | 0.51 mm | - | 30 W/m² | - |
* Rain latest hour (hover to see other rain measurements)
** Current wind speed in m/s (hover to see current wind gust speed)